createdAt,value
2018-05-13T00:02:22.884Z,87.90
2018-05-13T00:04:49.409Z,87.60
2018-05-13T00:07:15.585Z,87.00
2018-05-13T00:09:41.850Z,87.30
2018-05-13T00:12:08.042Z,86.60
2018-05-13T00:14:34.209Z,86.90
2018-05-13T00:17:00.373Z,87.30
2018-05-13T00:19:26.829Z,86.20
2018-05-13T00:21:52.953Z,87.00
2018-05-13T00:24:19.186Z,87.60
2018-05-13T00:26:45.693Z,87.30
2018-05-13T00:29:11.799Z,86.60
2018-05-13T00:31:37.916Z,86.40
2018-05-13T00:34:04.049Z,86.80
2018-05-13T00:36:30.989Z,85.90
2018-05-13T00:38:57.098Z,85.90
2018-05-13T00:41:23.272Z,85.80
2018-05-13T00:43:49.421Z,85.80
2018-05-13T00:46:15.722Z,86.00
2018-05-13T00:48:41.860Z,85.50
2018-05-13T00:51:08.002Z,85.80
2018-05-13T00:53:34.189Z,85.80
2018-05-13T00:56:00.333Z,85.60
2018-05-13T00:58:26.441Z,85.70
2018-05-13T01:00:52.697Z,84.90
2018-05-13T01:03:18.813Z,84.30
2018-05-13T01:05:44.905Z,84.60
2018-05-13T01:08:11.023Z,84.70
2018-05-13T01:10:37.145Z,84.70
2018-05-13T01:13:03.329Z,84.90
2018-05-13T01:15:29.450Z,84.60
2018-05-13T01:17:55.585Z,84.40
2018-05-13T01:20:22.004Z,84.90
2018-05-13T01:22:48.183Z,84.70
2018-05-13T01:25:15.117Z,84.70
2018-05-13T01:27:41.260Z,84.70
2018-05-13T01:30:07.470Z,85.20
2018-05-13T01:32:33.811Z,85.00
2018-05-13T01:35:00.689Z,85.70
2018-05-13T01:37:26.833Z,85.70
2018-05-13T01:39:53.066Z,85.30
2018-05-13T01:42:19.296Z,85.70
2018-05-13T01:44:45.570Z,85.30
2018-05-13T01:47:12.533Z,86.00
2018-05-13T01:49:38.728Z,86.00
2018-05-13T01:52:04.904Z,86.90
2018-05-13T01:54:31.111Z,87.40
2018-05-13T01:56:57.271Z,86.70
2018-05-13T01:59:23.403Z,86.30
2018-05-13T02:01:49.586Z,85.90
2018-05-13T02:04:16.045Z,86.00
2018-05-13T02:06:42.146Z,85.70
2018-05-13T02:09:08.237Z,84.90
2018-05-13T02:11:34.364Z,84.40
2018-05-13T02:14:00.428Z,84.30
2018-05-13T02:16:26.528Z,84.40
2018-05-13T02:18:53.071Z,83.40
2018-05-13T02:21:19.913Z,84.20
2018-05-13T02:23:46.635Z,84.20
2018-05-13T02:26:12.732Z,84.20
2018-05-13T02:28:38.848Z,84.40
2018-05-13T02:31:04.980Z,83.60
2018-05-13T02:33:31.285Z,83.90
2018-05-13T02:35:57.399Z,84.10
2018-05-13T02:38:23.656Z,84.40
2018-05-13T02:40:49.660Z,84.20
2018-05-13T02:43:16.266Z,84.10
2018-05-13T02:45:43.085Z,83.80
2018-05-13T02:48:09.253Z,83.80
2018-05-13T02:50:35.341Z,84.10
2018-05-13T02:53:01.903Z,83.30
2018-05-13T02:55:28.024Z,83.30
2018-05-13T02:57:54.101Z,82.80
2018-05-13T03:00:20.339Z,82.50
2018-05-13T03:02:46.673Z,82.40
2018-05-13T03:05:12.773Z,83.00
2018-05-13T03:07:38.869Z,83.20
2018-05-13T03:10:05.077Z,83.20
2018-05-13T03:12:31.969Z,83.30
2018-05-13T03:14:58.336Z,83.30
2018-05-13T03:17:24.493Z,82.90
2018-05-13T03:19:50.593Z,81.40
2018-05-13T03:22:17.809Z,80.50
2018-05-13T03:24:43.975Z,80.40
2018-05-13T03:27:10.863Z,86.60
2018-05-13T03:29:37.045Z,86.50
2018-05-13T03:32:03.986Z,89.90
2018-05-13T03:34:30.082Z,89.90
2018-05-13T03:36:56.228Z,90.20
2018-05-13T03:39:22.760Z,90.20
2018-05-13T03:41:48.898Z,90.20
2018-05-13T03:44:15.097Z,90.30
2018-05-13T03:46:41.229Z,89.70
2018-05-13T03:49:07.401Z,89.60
2018-05-13T03:51:33.525Z,88.80
2018-05-13T03:53:59.628Z,88.00
2018-05-13T03:56:25.856Z,88.00
2018-05-13T03:58:52.043Z,86.70
2018-05-13T04:01:18.194Z,86.30
2018-05-13T04:03:44.534Z,86.20
2018-05-13T04:06:11.397Z,87.00
2018-05-13T04:08:49.693Z,86.90
2018-05-13T04:11:28.036Z,86.90
2018-05-13T04:14:06.253Z,87.70
2018-05-13T04:16:32.354Z,89.90
2018-05-13T04:18:58.897Z,90.60
2018-05-13T04:21:24.998Z,91.10
2018-05-13T04:23:51.131Z,91.20
2018-05-13T04:26:17.308Z,91.40
2018-05-13T04:28:43.809Z,91.90
2018-05-13T04:31:10.001Z,91.10
2018-05-13T04:33:36.879Z,90.90
2018-05-13T04:36:03.188Z,90.90
2018-05-13T04:38:29.343Z,90.80
2018-05-13T04:40:55.443Z,90.20
2018-05-13T04:43:21.557Z,88.40
2018-05-13T04:45:47.864Z,88.30
2018-05-13T04:48:13.941Z,88.20
2018-05-13T04:50:40.116Z,87.60
2018-05-13T04:53:06.221Z,87.40
2018-05-13T04:55:32.360Z,89.00
2018-05-13T04:57:58.609Z,88.90
2018-05-13T05:00:24.750Z,89.10
2018-05-13T05:02:50.845Z,88.90
2018-05-13T05:05:17.575Z,88.10
2018-05-13T05:07:43.716Z,88.80
2018-05-13T05:10:10.575Z,87.10
2018-05-13T05:12:37.413Z,86.70
2018-05-13T05:15:04.322Z,86.10
2018-05-13T05:17:30.582Z,86.10
2018-05-13T05:19:56.748Z,85.90
2018-05-13T05:22:22.973Z,83.20
2018-05-13T05:24:49.520Z,81.90
2018-05-13T05:27:15.628Z,79.40
2018-05-13T05:29:41.816Z,80.50
2018-05-13T05:32:08.040Z,80.70
2018-05-13T05:34:34.125Z,80.90
2018-05-13T05:37:00.286Z,80.80
2018-05-13T05:39:26.553Z,80.50
2018-05-13T05:41:52.651Z,80.70
2018-05-13T05:44:19.510Z,80.20
2018-05-13T05:46:45.616Z,80.10
2018-05-13T05:49:12.782Z,79.40
2018-05-13T05:51:38.879Z,79.30
2018-05-13T05:54:05.069Z,79.90
2018-05-13T05:56:31.228Z,80.10
2018-05-13T05:58:57.625Z,79.60
2018-05-13T06:01:23.861Z,79.90
2018-05-13T06:03:49.988Z,79.40
2018-05-13T06:06:16.155Z,78.70
2018-05-13T06:08:42.996Z,79.60
2018-05-13T06:11:09.074Z,79.60
2018-05-13T06:13:35.455Z,78.60
2018-05-13T06:16:01.546Z,78.60
2018-05-13T06:18:27.627Z,79.30
2018-05-13T06:20:53.750Z,79.90
2018-05-13T06:23:20.345Z,80.10
2018-05-13T06:25:46.512Z,80.30
2018-05-13T06:28:12.545Z,79.90
2018-05-13T06:30:38.770Z,80.50
2018-05-13T06:33:04.896Z,79.50
2018-05-13T06:35:31.084Z,78.40
2018-05-13T06:37:57.215Z,78.90
2018-05-13T06:40:23.472Z,78.80
2018-05-13T06:42:49.917Z,79.70
2018-05-13T06:45:16.092Z,79.90
2018-05-13T06:47:42.170Z,79.30
2018-05-13T06:50:08.322Z,79.70
2018-05-13T06:52:34.405Z,79.70
2018-05-13T06:55:00.576Z,79.50
2018-05-13T06:57:26.758Z,78.30
2018-05-13T06:59:53.067Z,77.70
2018-05-13T07:02:19.162Z,77.80
2018-05-13T07:04:45.270Z,78.10
2018-05-13T07:07:11.981Z,77.10
2018-05-13T07:09:38.183Z,77.20
2018-05-13T07:12:05.079Z,76.40
2018-05-13T07:14:31.247Z,76.20
2018-05-13T07:16:58.155Z,76.50
2018-05-13T07:19:24.330Z,76.50
2018-05-13T07:21:50.454Z,76.80
2018-05-13T07:24:16.556Z,77.20
2018-05-13T07:26:46.686Z,77.00
2018-05-13T07:29:13.699Z,75.90
2018-05-13T07:31:39.826Z,75.90
2018-05-13T07:34:06.279Z,75.40
2018-05-13T07:36:32.471Z,75.70
2018-05-13T07:38:58.579Z,76.10
2018-05-13T07:41:24.712Z,77.60
2018-05-13T07:43:50.964Z,76.00
2018-05-13T07:46:17.140Z,75.50
2018-05-13T07:48:43.257Z,74.90
2018-05-13T07:51:09.404Z,73.80
2018-05-13T07:53:35.544Z,74.30
2018-05-13T07:56:01.700Z,74.70
2018-05-13T07:58:27.872Z,75.10
2018-05-13T08:00:54.135Z,74.40
2018-05-13T08:03:20.255Z,73.40
2018-05-13T08:05:46.445Z,73.40
2018-05-13T08:08:12.593Z,73.90
2018-05-13T08:10:38.773Z,74.20
2018-05-13T08:13:06.049Z,73.20
2018-05-13T08:15:32.175Z,73.20
2018-05-13T08:17:58.325Z,73.90
2018-05-13T08:20:24.670Z,74.50
2018-05-13T08:22:50.806Z,74.70
2018-05-13T08:25:16.949Z,74.50
2018-05-13T08:27:43.118Z,74.50
2018-05-13T08:30:09.307Z,74.30
2018-05-13T08:32:35.444Z,74.30
2018-05-13T08:35:01.513Z,73.90
2018-05-13T08:37:27.682Z,73.70
2018-05-13T08:39:54.594Z,74.20
2018-05-13T08:42:20.727Z,74.10
2018-05-13T08:44:46.906Z,76.00
2018-05-13T08:47:13.160Z,76.40
2018-05-13T08:49:39.298Z,76.40
2018-05-13T08:52:05.433Z,76.70
2018-05-13T08:54:31.534Z,76.40
2018-05-13T08:56:57.717Z,76.50
2018-05-13T08:59:23.841Z,75.90
2018-05-13T09:01:49.993Z,76.40
2018-05-13T09:04:16.122Z,76.80
2018-05-13T09:06:42.881Z,77.30
2018-05-13T09:09:08.984Z,77.20
2018-05-13T09:11:35.148Z,77.00
2018-05-13T09:14:01.367Z,77.50
2018-05-13T09:16:27.486Z,77.80
2018-05-13T09:18:53.594Z,77.50
2018-05-13T09:21:19.932Z,77.00
2018-05-13T09:23:46.050Z,77.60
2018-05-13T09:26:12.125Z,77.00
2018-05-13T09:28:38.713Z,78.40
2018-05-13T09:31:04.973Z,79.20
2018-05-13T09:33:31.174Z,78.00
2018-05-13T09:35:58.030Z,77.80
2018-05-13T09:38:24.578Z,77.80
2018-05-13T09:40:50.743Z,78.00
2018-05-13T09:43:16.923Z,79.20
2018-05-13T09:45:43.050Z,78.00
2018-05-13T09:48:09.158Z,77.80
2018-05-13T09:50:35.338Z,77.10
2018-05-13T09:53:01.495Z,78.80
2018-05-13T09:55:27.652Z,78.80
2018-05-13T09:57:53.880Z,79.40
2018-05-13T10:00:20.537Z,80.30
2018-05-13T10:02:46.725Z,79.80
2018-05-13T10:05:12.877Z,79.60
2018-05-13T10:07:39.090Z,79.60
2018-05-13T10:10:05.192Z,80.60
2018-05-13T10:12:31.414Z,81.10
2018-05-13T10:14:57.568Z,81.10
2018-05-13T10:17:23.671Z,81.10
2018-05-13T10:19:49.784Z,81.90
2018-05-13T10:22:15.916Z,81.50
2018-05-13T10:24:42.146Z,81.40
2018-05-13T10:27:08.442Z,80.30
2018-05-13T10:29:34.610Z,81.20
2018-05-13T10:32:00.796Z,81.60
2018-05-13T10:34:27.365Z,80.80
2018-05-13T10:36:53.752Z,79.70
2018-05-13T10:39:19.895Z,79.40
2018-05-13T10:41:46.051Z,79.60
2018-05-13T10:44:12.364Z,78.80
2018-05-13T10:46:38.499Z,78.00
2018-05-13T10:49:04.902Z,79.20
2018-05-13T10:51:31.194Z,78.40
2018-05-13T10:53:57.780Z,78.50
2018-05-13T10:56:24.168Z,77.30
2018-05-13T10:58:51.516Z,77.20
2018-05-13T11:01:17.653Z,77.30
2018-05-13T11:03:44.075Z,77.60
2018-05-13T11:06:10.198Z,76.90
2018-05-13T11:08:36.302Z,76.20
2018-05-13T11:11:02.430Z,76.40
2018-05-13T11:13:28.779Z,76.40
2018-05-13T11:15:54.937Z,74.80
2018-05-13T11:18:21.111Z,74.60
2018-05-13T11:20:47.311Z,75.10
2018-05-13T11:23:13.437Z,75.70
2018-05-13T11:25:39.632Z,76.10
2018-05-13T11:28:05.842Z,76.80
2018-05-13T11:30:32.001Z,77.00
2018-05-13T11:32:58.209Z,76.50
2018-05-13T11:35:24.510Z,76.10
2018-05-13T11:37:50.631Z,76.10
2018-05-13T11:40:16.796Z,76.70
2018-05-13T11:42:42.942Z,76.40
2018-05-13T11:45:09.214Z,76.10
2018-05-13T11:47:35.360Z,76.40
2018-05-13T11:50:01.459Z,77.20
2018-05-13T11:52:27.687Z,76.90
2018-05-13T11:54:53.873Z,77.20
2018-05-13T11:57:20.051Z,77.30
2018-05-13T11:59:46.308Z,77.30
2018-05-13T12:02:12.636Z,75.90
2018-05-13T12:04:38.830Z,75.60
2018-05-13T12:07:04.954Z,75.70
2018-05-13T12:09:31.104Z,74.30
2018-05-13T12:11:57.323Z,74.30
2018-05-13T12:14:23.411Z,73.80
2018-05-13T12:16:49.787Z,74.50
2018-05-13T12:19:15.887Z,74.20
2018-05-13T12:21:42.041Z,74.20
2018-05-13T12:24:08.289Z,73.90
2018-05-13T12:26:34.516Z,73.10
2018-05-13T12:29:01.380Z,72.20
2018-05-13T12:31:28.739Z,73.00
2018-05-13T12:33:54.894Z,72.90
2018-05-13T12:36:21.963Z,72.90
2018-05-13T12:38:48.072Z,73.40
2018-05-13T12:41:14.241Z,73.00
2018-05-13T12:43:40.513Z,73.80
2018-05-13T12:46:06.726Z,74.50
2018-05-13T12:48:32.873Z,74.70
2018-05-13T12:50:59.121Z,74.20
2018-05-13T12:53:25.235Z,74.70
2018-05-13T12:55:51.397Z,74.20
2018-05-13T12:58:17.581Z,73.10
2018-05-13T13:00:43.740Z,73.30
2018-05-13T13:03:10.777Z,74.40
2018-05-13T13:05:36.998Z,73.40
2018-05-13T13:08:03.218Z,72.90
2018-05-13T13:10:29.868Z,72.30
2018-05-13T13:12:56.083Z,72.60
2018-05-13T13:15:22.269Z,72.70
2018-05-13T13:17:48.434Z,72.60
2018-05-13T13:20:14.637Z,73.40
2018-05-13T13:22:40.873Z,73.70
2018-05-13T13:25:07.000Z,73.20
2018-05-13T13:27:33.198Z,73.20
2018-05-13T13:29:59.352Z,73.40
2018-05-13T13:32:25.547Z,72.90
2018-05-13T13:34:51.823Z,73.00
2018-05-13T13:37:18.059Z,73.40
2018-05-13T13:39:45.977Z,73.80
2018-05-13T13:42:12.229Z,73.70
2018-05-13T13:44:38.450Z,74.00
2018-05-13T13:47:04.636Z,74.60
2018-05-13T13:49:31.715Z,75.90
2018-05-13T13:51:58.171Z,75.90
2018-05-13T13:54:24.341Z,75.90
2018-05-13T13:56:50.460Z,75.90
2018-05-13T13:59:16.614Z,76.50
2018-05-13T14:01:47.073Z,76.40
2018-05-13T14:04:14.905Z,75.70
2018-05-13T14:06:43.227Z,76.40
2018-05-13T14:09:09.327Z,76.10
2018-05-13T14:11:35.476Z,77.20
2018-05-13T14:14:01.965Z,75.00
2018-05-13T14:16:28.933Z,76.20
2018-05-13T14:18:55.103Z,76.10
2018-05-13T14:21:21.484Z,76.70
2018-05-13T14:23:47.688Z,76.20
2018-05-13T14:26:13.877Z,75.40
2018-05-13T14:28:40.339Z,75.70
2018-05-13T14:31:06.983Z,75.90
2018-05-13T14:33:33.433Z,75.70
2018-05-13T14:35:59.745Z,76.80
2018-05-13T14:38:26.333Z,77.10
2018-05-13T14:40:52.867Z,77.60
2018-05-13T14:43:19.798Z,77.30
2018-05-13T14:45:46.477Z,77.30
2018-05-13T14:48:12.713Z,77.10
2018-05-13T14:50:40.095Z,79.20
2018-05-13T14:53:06.482Z,79.10
2018-05-13T14:55:33.135Z,80.00
2018-05-13T14:57:59.838Z,80.40
2018-05-13T15:00:26.578Z,80.90
2018-05-13T15:02:52.812Z,80.90
2018-05-13T15:05:20.431Z,80.80
2018-05-13T15:07:47.895Z,80.00
2018-05-13T15:10:15.733Z,79.90
2018-05-13T15:12:42.159Z,80.20
2018-05-13T15:15:10.528Z,81.70
2018-05-13T15:17:37.846Z,81.70
2018-05-13T15:20:04.632Z,80.80
2018-05-13T15:22:33.225Z,82.30
2018-05-13T15:25:00.305Z,83.20
2018-05-13T15:27:27.265Z,83.80
2018-05-13T15:29:53.645Z,83.50
2018-05-13T15:32:20.099Z,83.30
2018-05-13T15:34:46.801Z,83.40
2018-05-13T15:37:13.232Z,82.30
2018-05-13T15:39:39.882Z,82.60
2018-05-13T15:42:09.452Z,82.60
2018-05-13T15:44:37.353Z,82.60
2018-05-13T15:47:05.316Z,83.40
2018-05-13T15:49:31.724Z,83.40
2018-05-13T15:51:57.998Z,84.40
2018-05-13T15:54:24.311Z,84.40
2018-05-13T15:56:51.695Z,82.80
2018-05-13T15:59:18.033Z,82.70
2018-05-13T16:01:44.608Z,83.70
2018-05-13T16:04:11.777Z,83.80
2018-05-13T16:06:39.825Z,83.10
2018-05-13T16:09:06.588Z,83.00
2018-05-13T16:11:33.406Z,82.30
2018-05-13T16:13:59.955Z,81.80
2018-05-13T16:16:26.480Z,81.00
2018-05-13T16:19:00.304Z,81.80
2018-05-13T16:21:27.399Z,81.30
2018-05-13T16:23:53.865Z,82.60
2018-05-13T16:26:20.496Z,80.40
2018-05-13T16:28:48.465Z,81.40
2018-05-13T16:31:15.459Z,81.00
2018-05-13T16:33:42.299Z,80.30
2018-05-13T16:36:09.070Z,82.30
2018-05-13T16:38:35.478Z,81.70
2018-05-13T16:41:02.521Z,82.40
2018-05-13T16:43:29.682Z,82.00
2018-05-13T16:45:56.185Z,82.00
2018-05-13T16:48:22.541Z,81.30
2018-05-13T16:50:48.974Z,81.40
2018-05-13T16:53:15.345Z,82.30
2018-05-13T16:55:41.713Z,81.60
2018-05-13T16:58:08.271Z,82.10
2018-05-13T17:00:34.719Z,82.40
2018-05-13T17:03:02.633Z,82.40
2018-05-13T17:05:30.209Z,80.70
2018-05-13T17:07:57.696Z,81.00
2018-05-13T17:10:23.936Z,81.50
2018-05-13T17:12:51.236Z,83.30
2018-05-13T17:15:17.432Z,83.30
2018-05-13T17:17:43.605Z,83.30
2018-05-13T17:20:09.980Z,83.10
2018-05-13T17:22:36.138Z,84.10
2018-05-13T17:25:02.654Z,84.30
2018-05-13T17:27:28.871Z,85.00
2018-05-13T17:29:55.166Z,86.30
2018-05-13T17:32:22.468Z,86.70
2018-05-13T17:34:48.789Z,86.10
2018-05-13T17:37:16.072Z,86.00
2018-05-13T17:39:42.573Z,84.90
2018-05-13T17:42:09.316Z,84.20
2018-05-13T17:44:35.606Z,84.50
2018-05-13T17:47:01.773Z,85.70
2018-05-13T17:49:28.085Z,86.10
2018-05-13T17:51:54.343Z,86.00
2018-05-13T17:54:20.860Z,85.80
2018-05-13T17:56:47.581Z,85.80
2018-05-13T17:59:14.190Z,85.50
2018-05-13T18:01:42.741Z,85.20
2018-05-13T18:04:11.115Z,86.20
2018-05-13T18:06:40.111Z,86.10
2018-05-13T18:09:07.132Z,86.50
2018-05-13T18:11:33.398Z,86.50
2018-05-13T18:14:02.933Z,86.40
2018-05-13T18:16:29.624Z,86.30
2018-05-13T18:18:55.892Z,85.50
2018-05-13T18:21:22.125Z,85.10
2018-05-13T18:23:48.341Z,85.00
2018-05-13T18:26:16.693Z,85.30
2018-05-13T18:28:42.907Z,85.30
2018-05-13T18:31:09.366Z,86.00
2018-05-13T18:33:35.523Z,86.80
2018-05-13T18:36:02.276Z,87.10
2018-05-13T18:38:28.534Z,86.70
2018-05-13T18:40:54.721Z,86.30
2018-05-13T18:43:21.042Z,86.50
2018-05-13T18:45:48.812Z,86.70
2018-05-13T18:48:15.731Z,87.90
2018-05-13T18:50:42.000Z,87.80
2018-05-13T18:53:08.565Z,87.90
2018-05-13T18:55:34.860Z,88.10
2018-05-13T18:58:01.494Z,88.50
2018-05-13T19:00:28.489Z,88.50
2018-05-13T19:02:55.276Z,88.50
2018-05-13T19:05:21.440Z,88.50
2018-05-13T19:07:49.271Z,88.10
2018-05-13T19:10:15.657Z,88.00
2018-05-13T19:12:41.867Z,88.40
2018-05-13T19:15:08.863Z,89.60
2018-05-13T19:17:35.253Z,89.60
2018-05-13T19:20:02.957Z,89.30
2018-05-13T19:22:29.258Z,89.30
2018-05-13T19:24:55.422Z,90.00
2018-05-13T19:27:21.555Z,89.30
2018-05-13T19:29:47.663Z,89.80
2018-05-13T19:32:14.035Z,89.90
2018-05-13T19:34:40.160Z,89.80
2018-05-13T19:37:06.587Z,88.80
2018-05-13T19:39:32.705Z,89.60
2018-05-13T19:41:58.814Z,89.60
2018-05-13T19:44:25.018Z,88.80
2018-05-13T19:46:51.969Z,89.40
2018-05-13T19:49:18.117Z,89.50
2018-05-13T19:51:45.318Z,89.90
2018-05-13T19:54:12.206Z,89.50
2018-05-13T19:56:38.393Z,89.50
2018-05-13T19:59:05.640Z,89.20
2018-05-13T20:01:32.141Z,89.20
2018-05-13T20:03:58.389Z,89.60
2018-05-13T20:06:24.670Z,88.70
2018-05-13T20:08:50.909Z,88.50
2018-05-13T20:11:17.266Z,88.80
2018-05-13T20:13:44.435Z,88.40
2018-05-13T20:16:11.527Z,86.70
2018-05-13T20:18:38.256Z,86.70
2018-05-13T20:21:05.885Z,86.30
2018-05-13T20:23:32.454Z,86.80
2018-05-13T20:25:58.815Z,86.50
2018-05-13T20:28:24.923Z,86.50
2018-05-13T20:30:51.059Z,86.70
2018-05-13T20:33:17.141Z,87.10
2018-05-13T20:35:44.338Z,86.40
2018-05-13T20:38:10.756Z,86.30
2018-05-13T20:40:36.884Z,87.30
2018-05-13T20:43:03.013Z,87.70
2018-05-13T20:45:29.245Z,88.00
2018-05-13T20:47:55.551Z,87.80
2018-05-13T20:50:21.676Z,87.80
2018-05-13T20:52:47.805Z,88.10
2018-05-13T20:55:14.032Z,88.20
2018-05-13T20:57:40.297Z,88.20
2018-05-13T21:00:06.465Z,88.00
2018-05-13T21:02:32.728Z,88.20
2018-05-13T21:04:58.911Z,88.20
2018-05-13T21:07:25.084Z,88.20
2018-05-13T21:09:51.268Z,88.20
2018-05-13T21:12:17.857Z,88.70
2018-05-13T21:14:44.278Z,88.80
2018-05-13T21:17:10.434Z,88.70
2018-05-13T21:19:36.716Z,88.00
2018-05-13T21:22:02.898Z,88.40
2018-05-13T21:24:29.131Z,87.90
2018-05-13T21:26:55.277Z,88.20
2018-05-13T21:29:21.523Z,88.30
2018-05-13T21:31:47.633Z,88.70
2018-05-13T21:34:13.907Z,88.80
2018-05-13T21:36:40.112Z,89.00
2018-05-13T21:39:06.269Z,89.20
2018-05-13T21:41:32.433Z,90.10
2018-05-13T21:43:59.314Z,89.50
2018-05-13T21:46:25.533Z,89.50
2018-05-13T21:48:51.700Z,89.20
2018-05-13T21:51:17.892Z,88.80
2018-05-13T21:53:44.813Z,89.30
2018-05-13T21:56:10.961Z,89.20
2018-05-13T21:58:37.085Z,89.30
2018-05-13T22:01:03.203Z,89.40
2018-05-13T22:03:29.432Z,88.40
2018-05-13T22:05:56.140Z,88.20
2018-05-13T22:08:22.386Z,88.00
2018-05-13T22:10:48.545Z,88.40
2018-05-13T22:13:14.669Z,87.80
2018-05-13T22:15:40.800Z,88.20
2018-05-13T22:18:06.928Z,88.40
2018-05-13T22:20:33.062Z,88.40
2018-05-13T22:22:59.243Z,88.70
2018-05-13T22:25:25.384Z,88.40
2018-05-13T22:27:51.612Z,88.00
2018-05-13T22:30:18.060Z,87.90
2018-05-13T22:32:44.166Z,87.70
2018-05-13T22:35:10.490Z,87.10
2018-05-13T22:37:36.745Z,87.10
2018-05-13T22:40:03.035Z,87.00
2018-05-13T22:42:29.142Z,86.80
2018-05-13T22:44:55.320Z,86.00
2018-05-13T22:47:22.267Z,85.70
2018-05-13T22:49:48.550Z,85.20
2018-05-13T22:52:15.428Z,83.80
2018-05-13T22:54:41.578Z,83.80
2018-05-13T22:57:07.675Z,83.90
2018-05-13T22:59:33.785Z,83.90
2018-05-13T23:02:00.677Z,83.90
2018-05-13T23:04:26.801Z,83.40
2018-05-13T23:06:52.934Z,83.40
2018-05-13T23:09:19.061Z,83.50
2018-05-13T23:11:45.357Z,83.40
2018-05-13T23:14:11.704Z,84.10
2018-05-13T23:16:37.999Z,83.70
2018-05-13T23:19:04.361Z,82.80
2018-05-13T23:21:30.577Z,82.80
2018-05-13T23:23:56.707Z,82.70
2018-05-13T23:26:22.980Z,83.30
2018-05-13T23:28:49.281Z,83.40
2018-05-13T23:31:15.806Z,83.70
2018-05-13T23:33:41.964Z,82.80
2018-05-13T23:36:08.946Z,82.90
2018-05-13T23:38:35.294Z,82.90
2018-05-13T23:41:01.512Z,83.00
2018-05-13T23:43:27.795Z,83.20
2018-05-13T23:45:54.090Z,83.40
2018-05-13T23:48:22.115Z,83.30
2018-05-13T23:50:48.280Z,82.80
2018-05-13T23:53:14.614Z,83.00
2018-05-13T23:55:40.771Z,83.50
2018-05-13T23:58:07.700Z,83.10
